createdAt,value
2023-03-11T00:00:47.500Z,0.90
2023-03-11T00:03:17.948Z,1.00
2023-03-11T00:05:47.126Z,1.00
2023-03-11T00:08:18.783Z,1.10
2023-03-11T00:10:48.972Z,1.10
2023-03-11T00:13:17.324Z,1.20
2023-03-11T00:15:48.897Z,1.20
2023-03-11T00:18:16.891Z,1.20
2023-03-11T00:20:46.474Z,1.30
2023-03-11T00:23:15.584Z,1.30
2023-03-11T00:25:46.665Z,1.30
2023-03-11T00:28:16.241Z,1.40
2023-03-11T00:30:45.411Z,1.40
2023-03-11T00:33:15.669Z,1.40
2023-03-11T00:35:44.092Z,1.50
2023-03-11T00:38:15.676Z,1.50
2023-03-11T00:40:44.614Z,1.50
2023-03-11T00:43:12.224Z,1.50
2023-03-11T00:45:40.132Z,1.50
2023-03-11T00:48:08.689Z,1.60
2023-03-11T00:50:37.669Z,1.60
2023-03-11T00:53:05.789Z,1.60
2023-03-11T00:55:35.502Z,1.60
2023-03-11T00:58:06.109Z,1.60
2023-03-11T01:00:34.332Z,1.60
2023-03-11T01:03:01.981Z,1.60
2023-03-11T01:05:32.431Z,1.60
2023-03-11T01:08:00.132Z,1.60
2023-03-11T01:10:29.232Z,1.50
2023-03-11T01:12:56.580Z,1.50
2023-03-11T01:15:32.396Z,1.50
2023-03-11T01:18:00.000Z,1.40
2023-03-11T01:20:27.429Z,1.40
2023-03-11T01:22:54.524Z,1.30
2023-03-11T01:25:24.141Z,1.20
2023-03-11T01:27:51.853Z,1.20
2023-03-11T01:30:24.053Z,1.10
2023-03-11T01:32:53.522Z,1.00
2023-03-11T01:35:23.404Z,0.90
2023-03-11T01:37:51.101Z,0.90
2023-03-11T01:40:44.204Z,1.00
2023-03-11T01:43:45.360Z,1.00
2023-03-11T01:46:14.935Z,1.00
2023-03-11T01:48:50.550Z,1.00
2023-03-11T01:51:34.072Z,1.00
2023-03-11T01:54:06.887Z,1.00
2023-03-11T01:56:34.711Z,1.00
2023-03-11T01:59:02.108Z,1.00
2023-03-11T02:01:29.861Z,0.90
2023-03-11T02:03:58.644Z,0.90
2023-03-11T02:06:26.552Z,0.90
2023-03-11T02:08:55.240Z,0.90
2023-03-11T02:11:27.560Z,0.80
2023-03-11T02:13:59.819Z,0.80
2023-03-11T02:16:27.363Z,0.70
2023-03-11T02:18:54.641Z,0.70
2023-03-11T02:21:30.600Z,0.70
2023-03-11T02:24:22.530Z,0.60
2023-03-11T02:27:07.532Z,0.60
2023-03-11T02:29:36.090Z,0.60
2023-03-11T02:32:08.900Z,0.60
2023-03-11T02:34:39.637Z,0.50
2023-03-11T02:37:10.973Z,0.60
2023-03-11T02:39:46.423Z,0.70
2023-03-11T02:42:26.199Z,0.70
2023-03-11T02:45:09.656Z,0.80
2023-03-11T02:47:39.327Z,0.90
2023-03-11T02:50:10.047Z,0.90
2023-03-11T02:52:37.351Z,0.90
2023-03-11T02:55:05.729Z,0.80
2023-03-11T02:57:32.765Z,0.80
2023-03-11T03:00:03.238Z,0.80
2023-03-11T03:02:30.220Z,0.90
2023-03-11T03:04:57.362Z,0.90
2023-03-11T03:07:24.513Z,0.90
2023-03-11T03:09:51.579Z,0.90
2023-03-11T03:12:18.731Z,0.90
2023-03-11T03:14:45.767Z,0.90
2023-03-11T03:17:12.918Z,0.90
2023-03-11T03:19:40.184Z,0.90
2023-03-11T03:22:07.274Z,0.90
2023-03-11T03:24:34.449Z,0.90
2023-03-11T03:27:01.551Z,0.90
2023-03-11T03:29:28.820Z,0.90
2023-03-11T03:31:56.000Z,0.90
2023-03-11T03:34:23.094Z,0.90
2023-03-11T03:36:50.199Z,0.80
2023-03-11T03:39:19.787Z,0.80
2023-03-11T03:41:46.889Z,0.80
2023-03-11T03:44:14.785Z,0.80
2023-03-11T03:46:41.926Z,0.70
2023-03-11T03:49:09.165Z,0.70
2023-03-11T03:51:36.233Z,0.70
2023-03-11T03:54:04.600Z,0.70
2023-03-11T03:56:31.714Z,0.60
2023-03-11T03:58:58.861Z,0.60
2023-03-11T04:01:25.955Z,0.60
2023-03-11T04:03:54.145Z,0.50
2023-03-11T04:06:30.376Z,0.50
2023-03-11T04:08:57.823Z,0.50
2023-03-11T04:11:25.026Z,0.50
2023-03-11T04:13:52.459Z,0.40
2023-03-11T04:16:22.898Z,0.30
2023-03-11T04:18:50.582Z,0.30
2023-03-11T04:21:19.022Z,0.20
2023-03-11T04:23:46.514Z,0.10
2023-03-11T04:26:13.886Z,0.00
2023-03-11T04:28:44.618Z,0.00
2023-03-11T04:31:21.714Z,0.00
2023-03-11T04:33:59.168Z,-0.10
2023-03-11T04:36:33.351Z,-0.20
2023-03-11T04:39:28.984Z,-0.20
2023-03-11T04:41:57.899Z,-0.10
2023-03-11T04:44:25.561Z,-0.10
2023-03-11T04:47:22.261Z,-0.10
2023-03-11T04:57:25.830Z,-0.10
2023-03-11T06:50:32.824Z,-0.40
2023-03-11T06:53:13.871Z,-0.30
2023-03-11T06:59:28.584Z,-0.20
2023-03-11T07:08:05.156Z,0.00
2023-03-11T07:09:16.770Z,0.20
2023-03-11T07:12:09.762Z,0.20
2023-03-11T07:14:45.475Z,0.30
2023-03-11T07:17:23.985Z,0.30
2023-03-11T07:19:56.010Z,0.30
2023-03-11T07:25:55.569Z,0.40
2023-03-11T07:28:25.287Z,0.50
2023-03-11T07:30:54.353Z,0.60
2023-03-11T07:33:34.241Z,0.70
2023-03-11T07:36:14.078Z,0.80
2023-03-11T07:38:41.991Z,0.90
2023-03-11T07:41:14.289Z,1.00
2023-03-11T07:43:43.175Z,1.10
2023-03-11T07:46:16.598Z,1.10
2023-03-11T07:48:44.489Z,1.30
2023-03-11T07:51:15.522Z,1.50
2023-03-11T07:53:43.454Z,1.80
2023-03-11T07:56:12.882Z,2.20
2023-03-11T07:58:41.139Z,2.80
2023-03-11T08:01:16.353Z,3.60
2023-03-11T08:03:45.493Z,4.70
2023-03-11T08:06:18.779Z,5.50
2023-03-11T08:08:47.404Z,6.30
2023-03-11T08:11:16.047Z,7.20
2023-03-11T08:13:45.173Z,7.70
2023-03-11T08:16:19.624Z,7.90
2023-03-11T08:18:48.713Z,7.90
2023-03-11T08:21:23.345Z,8.00
2023-03-11T08:23:50.808Z,8.00
2023-03-11T08:26:21.646Z,7.90
2023-03-11T08:28:49.473Z,8.10
2023-03-11T08:31:20.372Z,8.00
2023-03-11T08:33:52.630Z,7.40
2023-03-11T08:36:21.169Z,6.80
2023-03-11T08:38:48.763Z,6.20
2023-03-11T08:41:16.184Z,5.90
2023-03-11T08:43:44.559Z,6.50
2023-03-11T08:46:36.652Z,7.00
2023-03-11T08:49:04.761Z,7.20
2023-03-11T08:51:34.339Z,7.30
2023-03-11T08:54:02.957Z,7.20
2023-03-11T08:56:30.496Z,7.00
2023-03-11T08:58:57.910Z,7.20
2023-03-11T09:01:25.829Z,7.40
2023-03-11T09:03:52.774Z,7.50
2023-03-11T09:06:19.971Z,7.40
2023-03-11T09:08:47.982Z,7.30
2023-03-11T09:11:16.610Z,7.50
2023-03-11T09:13:44.343Z,7.20
2023-03-11T09:16:20.910Z,7.00
2023-03-11T09:18:48.354Z,6.70
2023-03-11T09:21:15.365Z,6.80
2023-03-11T09:23:44.316Z,7.30
2023-03-11T09:26:12.505Z,7.50
2023-03-11T09:28:40.861Z,7.70
2023-03-11T09:31:08.281Z,7.70
2023-03-11T09:33:42.669Z,7.50
2023-03-11T09:36:15.688Z,7.30
2023-03-11T09:38:43.520Z,7.30
2023-03-11T09:41:59.000Z,7.60
2023-03-11T09:45:05.183Z,7.70
2023-03-11T09:48:24.242Z,7.90
2023-03-11T09:50:59.366Z,7.80
2023-03-11T09:53:35.088Z,7.20
2023-03-11T09:56:07.810Z,6.90
2023-03-11T09:58:50.607Z,6.90
2023-03-11T10:01:26.273Z,7.50
2023-03-11T10:03:57.888Z,7.90
2023-03-11T10:06:31.111Z,8.30
2023-03-11T10:09:25.510Z,8.40
2023-03-11T10:12:07.456Z,8.50
2023-03-11T10:15:03.841Z,8.40
2023-03-11T10:18:19.151Z,8.40
2023-03-11T10:21:10.151Z,8.20
2023-03-11T10:24:21.283Z,8.30
2023-03-11T10:26:58.066Z,8.30
2023-03-11T10:29:35.260Z,8.50
2023-03-11T10:32:06.681Z,8.70
2023-03-11T10:34:48.195Z,8.80
2023-03-11T10:37:29.082Z,8.50
2023-03-11T10:40:19.771Z,8.40
2023-03-11T10:42:47.549Z,8.60
2023-03-11T10:45:15.658Z,8.40
2023-03-11T10:47:42.876Z,8.20
2023-03-11T10:50:18.102Z,8.00
2023-03-11T10:53:10.769Z,7.90
2023-03-11T10:55:51.523Z,8.00
2023-03-11T10:58:30.425Z,8.30
2023-03-11T11:01:15.920Z,8.70
2023-03-11T11:03:46.323Z,9.10
2023-03-11T11:06:33.720Z,9.30
2023-03-11T11:09:23.664Z,9.40
2023-03-11T11:12:05.973Z,9.70
2023-03-11T11:14:51.305Z,9.80
2023-03-11T11:17:37.831Z,9.80
2023-03-11T11:20:13.276Z,9.60
2023-03-11T11:22:56.581Z,9.40
2023-03-11T11:25:35.834Z,9.30
2023-03-11T11:28:18.880Z,9.50
2023-03-11T11:30:58.932Z,9.40
2023-03-11T11:33:40.897Z,9.30
2023-03-11T11:36:16.612Z,9.40
2023-03-11T11:38:44.418Z,9.40
2023-03-11T11:41:17.651Z,9.70
2023-03-11T11:43:53.374Z,9.70
2023-03-11T11:46:30.199Z,9.80
2023-03-11T11:49:29.492Z,9.80
2023-03-11T11:52:18.617Z,9.40
2023-03-11T11:54:59.235Z,9.40
2023-03-11T11:57:26.278Z,9.60
2023-03-11T11:59:53.564Z,9.50
2023-03-11T12:03:02.680Z,9.60
2023-03-11T12:05:31.489Z,9.40
2023-03-11T12:08:43.197Z,9.10
2023-03-11T12:11:20.185Z,9.00
2023-03-11T12:14:11.794Z,8.70
2023-03-11T12:16:59.227Z,8.70
2023-03-11T12:19:50.001Z,8.90
2023-03-11T12:22:47.857Z,9.30
2023-03-11T12:25:27.445Z,9.70
2023-03-11T12:28:09.229Z,9.60
2023-03-11T12:30:43.951Z,9.40
2023-03-11T12:33:37.140Z,9.40
2023-03-11T12:36:06.160Z,9.60
2023-03-11T12:38:37.556Z,9.70
2023-03-11T12:41:43.109Z,9.80
2023-03-11T12:44:30.677Z,9.60
2023-03-11T12:47:15.739Z,9.20
2023-03-11T12:49:46.161Z,8.90
2023-03-11T12:52:15.590Z,8.90
2023-03-11T12:54:47.828Z,8.70
2023-03-11T12:57:17.865Z,8.60
2023-03-11T13:00:03.362Z,8.50
2023-03-11T13:03:32.777Z,8.70
2023-03-11T13:06:20.174Z,8.70
2023-03-11T13:08:57.096Z,8.80
2023-03-11T13:11:32.987Z,8.70
2023-03-11T13:14:14.915Z,8.50
2023-03-11T13:16:43.411Z,8.10
2023-03-11T13:19:32.125Z,8.00
2023-03-11T13:22:03.235Z,8.00
2023-03-11T13:24:30.126Z,8.20
2023-03-11T13:27:05.266Z,8.40
2023-03-11T13:29:52.015Z,8.60
2023-03-11T13:32:54.429Z,8.80
2023-03-11T13:36:09.192Z,9.00
2023-03-11T13:39:10.632Z,9.30
2023-03-11T13:41:41.877Z,9.80
2023-03-11T13:44:29.014Z,9.90
2023-03-11T13:47:09.974Z,9.80
2023-03-11T13:49:51.930Z,9.60
2023-03-11T13:52:37.047Z,9.40
2023-03-11T13:55:37.898Z,9.30
2023-03-11T13:58:20.940Z,9.20
2023-03-11T14:00:52.471Z,9.30
2023-03-11T14:03:22.292Z,9.40
2023-03-11T14:06:07.285Z,9.50
2023-03-11T14:08:37.096Z,9.50
2023-03-11T14:11:10.368Z,9.60
2023-03-11T14:13:46.058Z,9.80
2023-03-11T14:16:43.712Z,9.80
2023-03-11T14:19:16.096Z,9.60
2023-03-11T14:21:51.615Z,9.50
2023-03-11T14:24:25.449Z,9.30
2023-03-11T14:26:55.721Z,9.10
2023-03-11T14:29:43.345Z,9.00
2023-03-11T14:32:28.852Z,8.80
2023-03-11T14:34:56.938Z,8.50
2023-03-11T14:37:37.823Z,8.40
2023-03-11T14:40:27.331Z,8.40
2023-03-11T14:43:01.092Z,8.70
2023-03-11T14:45:34.129Z,8.90
2023-03-11T14:48:12.396Z,8.90
2023-03-11T14:50:39.450Z,9.00
2023-03-11T14:53:22.437Z,9.00
2023-03-11T14:55:52.013Z,8.90
2023-03-11T14:58:40.701Z,8.70
2023-03-11T15:01:26.786Z,8.60
2023-03-11T15:04:06.603Z,8.60
2023-03-11T15:06:35.250Z,8.60
2023-03-11T15:09:07.943Z,8.70
2023-03-11T15:12:07.413Z,8.80
2023-03-11T15:14:36.999Z,8.60
2023-03-11T15:17:13.314Z,8.40
2023-03-11T15:19:44.570Z,8.10
2023-03-11T15:22:38.992Z,8.10
2023-03-11T15:25:19.856Z,8.00
2023-03-11T15:27:47.036Z,8.20
2023-03-11T15:30:34.198Z,8.40
2023-03-11T15:33:01.308Z,8.30
2023-03-11T15:35:31.502Z,8.40
2023-03-11T15:38:26.312Z,8.50
2023-03-11T15:41:03.800Z,8.60
2023-03-11T15:43:43.739Z,8.60
2023-03-11T15:46:11.316Z,8.60
2023-03-11T15:48:38.397Z,8.60
2023-03-11T15:51:05.543Z,8.80
2023-03-11T15:53:32.490Z,8.90
2023-03-11T15:56:07.784Z,8.90
2023-03-11T15:58:37.912Z,8.80
2023-03-11T16:01:05.291Z,8.80
2023-03-11T16:03:32.355Z,8.70
2023-03-11T16:05:59.387Z,8.70
2023-03-11T16:08:26.383Z,8.60
2023-03-11T16:10:53.306Z,8.50
2023-03-11T16:13:20.326Z,8.40
2023-03-11T16:15:47.407Z,8.40
2023-03-11T16:18:14.769Z,8.50
2023-03-11T16:20:46.678Z,8.40
2023-03-11T16:23:27.653Z,8.40
2023-03-11T16:25:59.957Z,8.40
2023-03-11T16:28:27.261Z,8.40
2023-03-11T16:30:55.415Z,8.40
2023-03-11T16:33:22.449Z,8.30
2023-03-11T16:35:49.509Z,8.20
2023-03-11T16:38:19.341Z,8.10
2023-03-11T16:40:56.184Z,8.00
2023-03-11T16:43:23.227Z,8.00
2023-03-11T16:45:50.224Z,8.10
2023-03-11T16:48:17.243Z,8.00
2023-03-11T16:50:44.183Z,8.00
2023-03-11T16:53:11.217Z,8.00
2023-03-11T16:55:38.197Z,7.90
2023-03-11T16:58:05.132Z,7.90
2023-03-11T17:00:32.110Z,7.80
2023-03-11T17:02:59.105Z,7.80
2023-03-11T17:05:26.180Z,7.70
2023-03-11T17:08:00.046Z,7.60
2023-03-11T17:10:28.727Z,7.40
2023-03-11T17:12:55.944Z,7.30
2023-03-11T17:15:22.923Z,7.20
2023-03-11T17:17:50.701Z,7.00
2023-03-11T17:20:19.983Z,6.90
2023-03-11T17:22:48.571Z,6.80
2023-03-11T17:25:15.511Z,6.80
2023-03-11T17:27:42.424Z,6.70
2023-03-11T17:30:12.046Z,6.70
2023-03-11T17:32:39.027Z,6.70
2023-03-11T17:35:06.737Z,6.70
2023-03-11T17:37:34.239Z,6.70
2023-03-11T17:40:01.620Z,6.60
2023-03-11T17:42:28.530Z,6.50
2023-03-11T17:44:57.041Z,6.50
2023-03-11T17:47:27.570Z,6.40
2023-03-11T17:49:54.611Z,6.30
2023-03-11T17:52:21.571Z,6.30
2023-03-11T17:54:48.639Z,6.20
2023-03-11T17:57:15.697Z,6.20
2023-03-11T17:59:42.707Z,6.10
2023-03-11T18:02:14.239Z,6.10
2023-03-11T18:04:43.362Z,6.00
2023-03-11T18:07:10.362Z,6.00
2023-03-11T18:09:37.325Z,5.90
2023-03-11T18:12:06.584Z,5.80
2023-03-11T18:14:33.703Z,5.80
2023-03-11T18:17:00.846Z,5.70
2023-03-11T18:19:27.770Z,5.70
2023-03-11T18:21:54.695Z,5.70
2023-03-11T18:24:21.617Z,5.60
2023-03-11T18:26:48.573Z,5.60
2023-03-11T18:29:15.705Z,5.60
2023-03-11T18:31:42.784Z,5.60
2023-03-11T18:34:13.381Z,5.50
2023-03-11T18:36:41.802Z,5.50
2023-03-11T18:39:13.866Z,5.50
2023-03-11T18:41:42.216Z,5.50
2023-03-11T18:44:09.419Z,5.50
2023-03-11T18:46:36.419Z,5.60
2023-03-11T18:49:05.286Z,5.60
2023-03-11T18:51:33.241Z,5.60
2023-03-11T18:54:01.097Z,5.70
2023-03-11T18:56:31.008Z,5.70
2023-03-11T18:58:59.471Z,5.70
2023-03-11T19:01:27.585Z,5.70
2023-03-11T19:03:59.902Z,5.70
2023-03-11T19:06:28.621Z,5.70
2023-03-11T19:08:56.968Z,5.70
2023-03-11T19:11:25.152Z,5.70
2023-03-11T19:13:52.915Z,5.70
2023-03-11T19:16:24.095Z,5.80
2023-03-11T19:18:53.803Z,5.80
2023-03-11T19:21:21.649Z,5.80
2023-03-11T19:23:51.775Z,5.80
2023-03-11T19:26:18.970Z,5.80
2023-03-11T19:28:46.029Z,5.90
2023-03-11T19:31:13.171Z,5.80
2023-03-11T19:33:40.306Z,5.80
2023-03-11T19:36:08.459Z,5.80
2023-03-11T19:38:36.040Z,5.90
2023-03-11T19:41:18.529Z,5.90
2023-03-11T19:43:47.517Z,5.90
2023-03-11T19:46:18.782Z,6.00
2023-03-11T19:48:45.798Z,5.90
2023-03-11T19:51:13.128Z,5.90
2023-03-11T19:53:41.685Z,5.90
2023-03-11T19:56:09.869Z,5.90
2023-03-11T19:58:37.150Z,5.90
2023-03-11T20:01:05.051Z,5.90
2023-03-11T20:03:32.057Z,5.90
2023-03-11T20:06:06.537Z,5.90
2023-03-11T20:08:37.759Z,6.00
2023-03-11T20:11:06.490Z,6.00
2023-03-11T20:13:36.215Z,6.00
2023-03-11T20:16:18.590Z,6.00
2023-03-11T20:18:50.134Z,6.10
2023-03-11T20:21:17.420Z,6.00
2023-03-11T20:23:44.492Z,6.00
2023-03-11T20:26:14.673Z,6.10
2023-03-11T20:28:41.907Z,6.00
2023-03-11T20:31:19.876Z,6.00
2023-03-11T20:33:49.241Z,6.00
2023-03-11T20:36:23.802Z,6.00
2023-03-11T20:38:53.543Z,5.90
2023-03-11T20:41:23.161Z,6.00
2023-03-11T20:43:55.734Z,5.90
2023-03-11T20:46:23.601Z,6.00
2023-03-11T20:48:50.681Z,6.00
2023-03-11T20:51:20.627Z,6.00
2023-03-11T20:53:48.987Z,6.00
2023-03-11T20:56:19.908Z,6.00
2023-03-11T20:58:48.750Z,6.00
2023-03-11T21:01:27.115Z,6.00
2023-03-11T21:03:57.634Z,6.00
2023-03-11T21:06:33.912Z,6.00
2023-03-11T21:09:05.271Z,6.10
2023-03-11T21:11:33.303Z,6.00
2023-03-11T21:14:00.428Z,6.00
2023-03-11T21:16:28.161Z,5.90
2023-03-11T21:18:55.788Z,5.90
2023-03-11T21:21:23.144Z,5.90
2023-03-11T21:23:50.618Z,5.90
2023-03-11T21:26:18.649Z,5.90
2023-03-11T21:28:46.785Z,6.00
2023-03-11T21:31:18.674Z,6.00
2023-03-11T21:33:46.902Z,6.00
2023-03-11T21:36:16.466Z,6.10
2023-03-11T21:38:43.892Z,6.00
2023-03-11T21:41:25.137Z,6.10
2023-03-11T21:43:54.183Z,6.10
2023-03-11T21:46:28.699Z,6.10
2023-03-11T21:48:56.038Z,6.00
2023-03-11T21:51:24.815Z,6.00
2023-03-11T21:53:51.935Z,6.00
2023-03-11T21:56:19.026Z,5.90
2023-03-11T21:58:46.055Z,5.80
2023-03-11T22:01:13.161Z,5.80
2023-03-11T22:03:41.045Z,5.90
2023-03-11T22:06:11.944Z,5.90
2023-03-11T22:08:39.535Z,5.90
2023-03-11T22:11:17.477Z,5.90
2023-03-11T22:13:50.961Z,5.90
2023-03-11T22:16:20.131Z,5.90
2023-03-11T22:18:48.160Z,6.00
2023-03-11T22:21:16.471Z,6.00
2023-03-11T22:23:44.874Z,6.00
2023-03-11T22:26:12.026Z,5.90
2023-03-11T22:28:39.102Z,5.90
2023-03-11T22:31:12.240Z,5.90
2023-03-11T22:33:39.840Z,5.90
2023-03-11T22:36:09.111Z,5.90
2023-03-11T22:38:37.069Z,5.80
2023-03-11T22:41:07.570Z,5.90
2023-03-11T22:43:36.076Z,5.80
2023-03-11T22:46:05.075Z,5.80
2023-03-11T22:48:33.320Z,5.80
2023-03-11T22:51:01.137Z,5.80
2023-03-11T22:53:28.148Z,5.70
2023-03-11T22:55:55.098Z,5.80
2023-03-11T22:58:22.155Z,5.80
2023-03-11T23:00:49.275Z,5.80
2023-03-11T23:03:16.836Z,5.80
2023-03-11T23:05:45.806Z,5.80
2023-03-11T23:08:16.372Z,5.80
2023-03-11T23:10:46.568Z,5.80
2023-03-11T23:13:14.603Z,5.90
2023-03-11T23:15:46.611Z,5.90
2023-03-11T23:18:16.199Z,5.90
2023-03-11T23:20:45.006Z,5.90
2023-03-11T23:23:13.593Z,5.90
2023-03-11T23:25:41.614Z,5.90
2023-03-11T23:28:08.971Z,5.90
2023-03-11T23:30:36.571Z,5.90
2023-03-11T23:33:03.953Z,5.90
2023-03-11T23:35:32.331Z,5.90
2023-03-11T23:38:00.068Z,5.90
2023-03-11T23:40:27.170Z,5.90
2023-03-11T23:42:54.195Z,5.80
2023-03-11T23:45:21.278Z,5.80
2023-03-11T23:47:48.248Z,5.70
2023-03-11T23:50:15.738Z,5.60
2023-03-11T23:52:42.832Z,5.60
2023-03-11T23:55:10.547Z,5.50
2023-03-11T23:57:37.786Z,5.40
